createdAt,value
2016-09-12T00:00:38.401Z,7.46
2016-09-12T00:01:38.398Z,7.75
2016-09-12T00:02:38.410Z,7.84
2016-09-12T00:03:38.399Z,7.75
2016-09-12T00:04:38.381Z,7.46
2016-09-12T00:05:38.728Z,7.37
2016-09-12T00:06:38.400Z,7.46
2016-09-12T00:07:38.374Z,7.37
2016-09-12T00:08:38.365Z,7.37
2016-09-12T00:09:38.685Z,6.98
2016-09-12T00:10:38.366Z,6.98
2016-09-12T00:11:38.367Z,6.6
2016-09-12T00:12:38.350Z,6.41
2016-09-12T00:13:38.387Z,6.31
2016-09-12T00:14:38.401Z,6.31
2016-09-12T00:15:38.676Z,6.31
2016-09-12T00:16:38.393Z,6.41
2016-09-12T00:17:38.344Z,6.31
2016-09-12T00:18:38.343Z,6.6
2016-09-12T00:19:38.328Z,6.21
2016-09-12T00:20:38.329Z,6.31
2016-09-12T00:21:38.347Z,6.41
2016-09-12T00:22:38.359Z,6.31
2016-09-12T00:23:38.347Z,6.12
2016-09-12T00:24:38.313Z,6.7
2016-09-12T00:25:38.339Z,6.31
2016-09-12T00:26:38.771Z,6.12
2016-09-12T00:27:38.297Z,6.31
2016-09-12T00:28:38.378Z,5.83
2016-09-12T00:29:38.329Z,6.21
2016-09-12T00:30:38.307Z,5.83
2016-09-12T00:31:38.296Z,5.64
2016-09-12T00:32:38.285Z,5.45
2016-09-12T00:33:38.300Z,5.74
2016-09-12T00:34:38.286Z,5.36
2016-09-12T00:35:38.271Z,5.64
2016-09-12T00:36:38.271Z,5.54
2016-09-12T00:37:38.273Z,5.54
2016-09-12T00:38:38.283Z,5.35
2016-09-12T00:39:38.267Z,5.35
2016-09-12T00:40:38.314Z,5.26
2016-09-12T00:41:38.251Z,5.45
2016-09-12T00:42:38.259Z,5.16
2016-09-12T00:43:38.276Z,5.45
2016-09-12T00:44:38.250Z,4.78
2016-09-12T00:45:38.238Z,4.88
2016-09-12T00:46:38.235Z,4.97
2016-09-12T00:47:38.264Z,5.26
2016-09-12T00:48:38.285Z,5.54
2016-09-12T00:49:38.235Z,5.35
2016-09-12T00:50:38.223Z,5.26
2016-09-12T00:51:38.334Z,5.16
2016-09-12T00:52:38.224Z,5.26
2016-09-12T00:53:38.245Z,5.16
2016-09-12T00:54:38.198Z,4.97
2016-09-12T00:55:38.195Z,4.88
2016-09-12T00:56:38.201Z,4.59
2016-09-12T00:57:38.204Z,4.97
2016-09-12T00:58:38.504Z,4.78
2016-09-12T00:59:38.604Z,4.88
2016-09-12T01:00:38.225Z,4.68
2016-09-12T01:01:38.176Z,4.78
2016-09-12T01:02:38.178Z,4.49
2016-09-12T01:03:38.228Z,4.68
2016-09-12T01:04:38.167Z,4.39
2016-09-12T01:05:38.168Z,4.49
2016-09-12T01:06:38.492Z,4.68
2016-09-12T01:07:38.165Z,4.78
2016-09-12T01:08:38.154Z,4.59
2016-09-12T01:09:38.176Z,4.88
2016-09-12T01:10:38.153Z,4.97
2016-09-12T01:11:38.150Z,4.97
2016-09-12T01:12:38.158Z,4.97
2016-09-12T01:13:38.131Z,5.26
2016-09-12T01:14:38.234Z,5.35
2016-09-12T01:15:38.130Z,5.26
2016-09-12T01:16:38.177Z,5.16
2016-09-12T01:17:38.129Z,4.97
2016-09-12T01:18:38.121Z,4.88
2016-09-12T01:19:38.112Z,4.49
2016-09-12T01:20:38.139Z,4.49
2016-09-12T01:21:38.108Z,4.49
2016-09-12T01:22:38.430Z,4.49
2016-09-12T01:23:38.095Z,4.78
2016-09-12T01:24:38.120Z,4.39
2016-09-12T01:25:38.095Z,4.3
2016-09-12T01:26:38.090Z,4.3
2016-09-12T01:27:38.407Z,4.3
2016-09-12T01:28:38.089Z,4.21
2016-09-12T01:29:38.111Z,4.3
2016-09-12T01:30:38.071Z,4.49
2016-09-12T01:31:38.084Z,4.3
2016-09-12T01:32:38.096Z,4.59
2016-09-12T01:33:38.065Z,4.21
2016-09-12T01:34:38.060Z,4.11
2016-09-12T01:35:38.047Z,4.21
2016-09-12T01:36:38.045Z,3.82
2016-09-12T01:37:38.047Z,4.21
2016-09-12T01:38:38.037Z,4.59
2016-09-12T01:39:38.038Z,4.49
2016-09-12T01:40:38.031Z,4.49
2016-09-12T01:41:38.154Z,4.59
2016-09-12T01:42:38.030Z,4.21
2016-09-12T01:43:38.011Z,4.39
2016-09-12T01:44:38.018Z,4.21
2016-09-12T01:45:38.022Z,4.02
2016-09-12T01:46:38.007Z,4.21
2016-09-12T01:47:38.013Z,4.02
2016-09-12T01:48:38.014Z,3.82
2016-09-12T01:49:37.995Z,4.11
2016-09-12T01:50:38.004Z,4.21
2016-09-12T01:51:38.298Z,4.59
2016-09-12T01:52:38.214Z,4.3
2016-09-12T01:53:37.990Z,4.78
2016-09-12T01:54:37.978Z,4.78
2016-09-12T01:55:37.970Z,4.88
2016-09-12T01:56:38.287Z,5.07
2016-09-12T01:57:37.977Z,4.68
2016-09-12T01:58:37.972Z,4.78
2016-09-12T01:59:37.961Z,4.88
2016-09-12T02:00:38.306Z,5.07
2016-09-12T02:01:37.959Z,5.16
2016-09-12T02:02:37.956Z,5.16
2016-09-12T02:03:37.941Z,5.45
2016-09-12T02:04:37.941Z,5.45
2016-09-12T02:05:37.944Z,5.64
2016-09-12T02:06:37.933Z,5.64
2016-09-12T02:07:37.933Z,5.54
2016-09-12T02:08:37.922Z,5.54
2016-09-12T02:09:37.922Z,5.45
2016-09-12T02:10:37.918Z,5.16
2016-09-12T02:11:37.903Z,5.45
2016-09-12T02:12:37.912Z,5.74
2016-09-12T02:13:37.916Z,5.54
2016-09-12T02:14:37.901Z,6.31
2016-09-12T02:15:37.902Z,6.12
2016-09-12T02:16:37.920Z,6.31
2016-09-12T02:17:37.900Z,6.31
2016-09-12T02:18:37.890Z,6.31
2016-09-12T02:19:37.925Z,5.93
2016-09-12T02:20:37.873Z,6.12
2016-09-12T02:21:38.197Z,5.83
2016-09-12T02:22:37.871Z,5.93
2016-09-12T02:23:37.865Z,5.74
2016-09-12T02:24:37.868Z,5.35
2016-09-12T02:25:37.855Z,5.16
2016-09-12T02:26:37.877Z,5.16
2016-09-12T02:27:37.854Z,5.16
2016-09-12T02:28:37.854Z,5.26
2016-09-12T02:29:37.839Z,5.16
2016-09-12T02:30:37.834Z,5.45
2016-09-12T02:31:38.153Z,5.26
2016-09-12T02:32:37.838Z,5.16
2016-09-12T02:33:37.890Z,5.26
2016-09-12T02:34:37.831Z,5.83
2016-09-12T02:35:37.813Z,5.64
2016-09-12T02:36:38.134Z,5.83
2016-09-12T02:37:37.811Z,5.74
2016-09-12T02:38:37.822Z,5.93
2016-09-12T02:39:37.804Z,6.21
2016-09-12T02:40:37.799Z,6.12
2016-09-12T02:41:37.802Z,6.31
2016-09-12T02:42:37.785Z,6.31
2016-09-12T02:43:37.807Z,6.12
2016-09-12T02:44:37.806Z,6.12
2016-09-12T02:45:37.790Z,6.02
2016-09-12T02:46:37.778Z,6.31
2016-09-12T02:47:37.794Z,6.41
2016-09-12T02:48:37.830Z,6.6
2016-09-12T02:49:37.761Z,6.79
2016-09-12T02:50:37.762Z,6.88
2016-09-12T02:51:37.764Z,6.79
2016-09-12T02:52:38.074Z,6.7
2016-09-12T02:53:37.767Z,6.88
2016-09-12T02:54:37.741Z,6.88
2016-09-12T02:55:37.744Z,7.17
2016-09-12T02:56:37.730Z,6.88
2016-09-12T02:57:37.724Z,7.07
2016-09-12T02:58:37.724Z,7.17
2016-09-12T02:59:37.724Z,7.07
2016-09-12T03:00:37.738Z,7.17
2016-09-12T03:01:37.736Z,7.07
2016-09-12T03:02:37.710Z,7.17
2016-09-12T03:03:37.819Z,7.17
2016-09-12T03:04:37.710Z,6.6
2016-09-12T03:05:37.766Z,6.7
2016-09-12T03:06:37.702Z,7.17
2016-09-12T03:07:37.692Z,6.88
2016-09-12T03:08:37.692Z,6.21
2016-09-12T03:09:37.684Z,6.31
2016-09-12T03:10:37.679Z,6.31
2016-09-12T03:11:37.686Z,6.31
2016-09-12T03:12:37.669Z,6.69
2016-09-12T03:13:37.679Z,6.41
2016-09-12T03:14:37.677Z,6.4
2016-09-12T03:15:37.652Z,6.02
2016-09-12T03:16:37.850Z,6.02
2016-09-12T03:17:37.648Z,5.74
2016-09-12T03:18:37.654Z,6.41
2016-09-12T03:19:37.726Z,6.31
2016-09-12T03:20:37.637Z,6.3
2016-09-12T03:21:37.635Z,6.31
2016-09-12T03:22:37.649Z,6.41
2016-09-12T03:23:37.638Z,6.31
2016-09-12T03:24:37.626Z,5.64
2016-09-12T03:25:37.896Z,5.35
2016-09-12T03:26:37.627Z,5.54
2016-09-12T03:27:37.618Z,5.54
2016-09-12T03:28:37.696Z,5.83
2016-09-12T03:29:37.683Z,5.74
2016-09-12T03:30:37.603Z,6.5
2016-09-12T03:31:37.826Z,6.31
2016-09-12T03:32:37.591Z,6.5
2016-09-12T03:33:37.587Z,6.88
2016-09-12T03:34:37.661Z,6.88
2016-09-12T03:35:37.576Z,6.98
2016-09-12T03:36:37.570Z,7.07
2016-09-12T03:37:37.589Z,7.46
2016-09-12T03:38:37.636Z,7.46
2016-09-12T03:39:37.581Z,7.75
2016-09-12T03:40:37.556Z,7.36
2016-09-12T03:41:37.566Z,7.93
2016-09-12T03:42:37.554Z,8.03
2016-09-12T03:43:37.570Z,7.46
2016-09-12T03:44:37.546Z,7.84
2016-09-12T03:45:37.533Z,7.65
2016-09-12T03:46:37.671Z,7.93
2016-09-12T03:47:37.526Z,8.03
2016-09-12T03:48:37.523Z,7.93
2016-09-12T03:49:37.524Z,8.42
2016-09-12T03:50:37.521Z,8.61
2016-09-12T03:51:37.510Z,8.41
2016-09-12T03:52:37.509Z,7.93
2016-09-12T03:53:37.508Z,8.03
2016-09-12T03:54:37.494Z,8.41
2016-09-12T03:55:37.498Z,8.51
2016-09-12T03:56:37.490Z,8.51
2016-09-12T03:57:37.508Z,8.89
2016-09-12T03:58:37.480Z,8.8
2016-09-12T03:59:37.481Z,9.75
2016-09-12T04:00:37.476Z,10.61
2016-09-12T04:01:37.474Z,10.52
2016-09-12T04:02:37.467Z,10.71
2016-09-12T04:03:37.476Z,10.61
2016-09-12T04:04:37.466Z,9.66
2016-09-12T04:05:37.458Z,9.75
2016-09-12T04:06:37.448Z,9.27
2016-09-12T04:07:37.456Z,9.46
2016-09-12T04:08:37.451Z,9.08
2016-09-12T04:09:37.446Z,8.8
2016-09-12T04:10:37.755Z,8.89
2016-09-12T04:11:37.461Z,8.98
2016-09-12T04:12:37.437Z,9.37
2016-09-12T04:13:37.742Z,9.17
2016-09-12T04:14:37.418Z,9.37
2016-09-12T04:15:37.416Z,9.37
2016-09-12T04:16:37.411Z,8.98
2016-09-12T04:17:37.401Z,9.27
2016-09-12T04:18:37.397Z,9.84
2016-09-12T04:19:37.403Z,10.61
2016-09-12T04:20:37.393Z,10.99
2016-09-12T04:21:37.388Z,11.47
2016-09-12T04:22:37.407Z,12.24
2016-09-12T04:23:37.381Z,12.33
2016-09-12T04:24:37.411Z,12.33
2016-09-12T04:25:37.379Z,12.33
2016-09-12T04:26:37.371Z,12.24
2016-09-12T04:27:37.358Z,11.66
2016-09-12T04:28:37.371Z,11.09
2016-09-12T04:29:37.367Z,11.09
2016-09-12T04:30:37.347Z,10.89
2016-09-12T04:31:37.359Z,10.89
2016-09-12T04:32:37.353Z,10.99
2016-09-12T04:33:37.348Z,11.38
2016-09-12T04:34:37.358Z,11.09
2016-09-12T04:35:37.345Z,11.28
2016-09-12T04:36:37.330Z,10.89
2016-09-12T04:37:37.332Z,10.8
2016-09-12T04:38:37.349Z,11.38
2016-09-12T04:39:37.327Z,11.28
2016-09-12T04:40:37.316Z,11.47
2016-09-12T04:41:37.324Z,11.85
2016-09-12T04:42:37.308Z,12.14
2016-09-12T04:43:37.307Z,12.33
2016-09-12T04:44:37.301Z,12.42
2016-09-12T04:45:37.290Z,12.14
2016-09-12T04:46:37.318Z,11.76
2016-09-12T04:47:37.284Z,11.28
2016-09-12T04:48:37.275Z,11.47
2016-09-12T04:49:37.484Z,11.75
2016-09-12T04:50:37.282Z,11.76
2016-09-12T04:51:37.266Z,11.46
2016-09-12T04:52:37.256Z,11.28
2016-09-12T04:53:37.288Z,11.18
2016-09-12T04:54:37.342Z,11.66
2016-09-12T04:55:37.247Z,11.47
2016-09-12T04:56:37.300Z,11.95
2016-09-12T04:57:37.243Z,11.38
2016-09-12T04:58:37.238Z,11.38
2016-09-12T04:59:37.223Z,11.38
2016-09-12T05:00:37.240Z,11.66
2016-09-12T05:01:37.604Z,11.95
2016-09-12T05:02:37.233Z,12.33
2016-09-12T05:03:37.309Z,12.43
2016-09-12T05:04:37.221Z,12.52
2016-09-12T05:05:37.214Z,12.14
2016-09-12T05:06:37.536Z,11.85
2016-09-12T05:07:37.197Z,12.04
2016-09-12T05:08:37.198Z,11.66
2016-09-12T05:09:37.179Z,11.76
2016-09-12T05:10:37.182Z,11.76
2016-09-12T05:11:37.182Z,11.85
2016-09-12T05:12:37.172Z,11.95
2016-09-12T05:13:37.177Z,12.04
2016-09-12T05:14:37.261Z,12.24
2016-09-12T05:15:37.159Z,11.76
2016-09-12T05:16:37.170Z,11.28
2016-09-12T05:17:37.160Z,11.28
2016-09-12T05:18:37.484Z,10.89
2016-09-12T05:19:37.152Z,10.52
2016-09-12T05:20:37.474Z,10.03
2016-09-12T05:21:37.126Z,10.23
2016-09-12T05:22:37.142Z,9.94
2016-09-12T05:23:37.125Z,9.94
2016-09-12T05:24:37.126Z,10.32
2016-09-12T05:25:37.248Z,10.42
2016-09-12T05:26:37.117Z,10.8
2016-09-12T05:27:37.111Z,10.89
2016-09-12T05:28:37.103Z,10.99
2016-09-12T05:29:37.105Z,10.99
2016-09-12T05:30:37.426Z,10.89
2016-09-12T05:31:37.089Z,10.42
2016-09-12T05:32:37.095Z,10.32
2016-09-12T05:33:37.125Z,10.33
2016-09-12T05:34:37.119Z,10.04
2016-09-12T05:35:37.468Z,9.66
2016-09-12T05:36:37.066Z,9.08
2016-09-12T05:37:37.105Z,8.8
2016-09-12T05:38:37.144Z,8.89
2016-09-12T05:39:37.055Z,8.89
2016-09-12T05:40:37.052Z,8.51
2016-09-12T05:41:37.045Z,8.61
2016-09-12T05:42:37.052Z,7.93
2016-09-12T05:43:37.043Z,7.93
2016-09-12T05:44:37.051Z,7.27
2016-09-12T05:45:37.065Z,7.56
2016-09-12T05:46:37.024Z,7.46
2016-09-12T05:47:37.021Z,7.27
2016-09-12T05:48:37.029Z,7.46
2016-09-12T05:49:37.014Z,7.46
2016-09-12T05:50:37.020Z,7.36
2016-09-12T05:51:37.003Z,7.46
2016-09-12T05:52:36.997Z,7.56
2016-09-12T05:53:36.999Z,7.36
2016-09-12T05:54:37.249Z,7.56
2016-09-12T05:55:36.994Z,7.56
2016-09-12T05:56:36.993Z,8.22
2016-09-12T05:57:36.982Z,8.22
2016-09-12T05:58:36.992Z,8.8
2016-09-12T05:59:36.978Z,9.38
2016-09-12T06:00:36.981Z,9.47
2016-09-12T06:01:36.977Z,10.24
2016-09-12T06:02:36.953Z,10.33
2016-09-12T06:03:36.968Z,10.81
2016-09-12T06:04:36.949Z,10.81
2016-09-12T06:05:36.954Z,11.29
2016-09-12T06:06:36.941Z,11.77
2016-09-12T06:07:36.957Z,11.58
2016-09-12T06:08:36.970Z,11.1
2016-09-12T06:09:50.666Z,10.91
2016-09-12T06:10:36.948Z,11
2016-09-12T06:11:38.186Z,10.81
2016-09-12T06:12:37.851Z,10.34
2016-09-12T06:13:38.975Z,10.05
2016-09-12T06:14:36.916Z,10.24
2016-09-12T06:15:36.996Z,11.1
2016-09-12T06:16:37.035Z,10.82
2016-09-12T06:17:37.062Z,11.1
2016-09-12T06:18:36.908Z,11.3
2016-09-12T06:19:36.907Z,11.87
2016-09-12T06:20:45.776Z,12.06
2016-09-12T06:21:40.142Z,12.92
2016-09-12T06:23:26.103Z,12.92
2016-09-12T06:24:35.292Z,12.83
2016-09-12T06:25:35.291Z,12.73
2016-09-12T06:26:35.292Z,13.21
2016-09-12T06:27:35.298Z,13.31
2016-09-12T06:28:35.286Z,13.31
2016-09-12T06:29:35.278Z,13.21
2016-09-12T06:30:35.269Z,12.84
2016-09-12T06:31:35.269Z,13.02
2016-09-12T06:32:35.274Z,13.12
2016-09-12T06:33:35.274Z,13.02
2016-09-12T06:34:35.265Z,13.02
2016-09-12T06:35:35.257Z,12.74
2016-09-12T06:36:35.273Z,12.84
2016-09-12T06:37:35.253Z,12.74
2016-09-12T06:38:35.249Z,12.93
2016-09-12T06:39:35.250Z,12.45
2016-09-12T06:40:35.642Z,12.45
2016-09-12T06:42:06.409Z,12.35
2016-09-12T06:44:15.605Z,12.35
2016-09-12T06:49:53.091Z,11.02
2016-09-12T07:06:01.078Z,11.6
2016-09-12T07:11:48.186Z,17.17
2016-09-12T07:30:58.537Z,26.4
2016-09-12T13:18:38.828Z,49.85
2016-09-12T13:19:38.838Z,44.72
2016-09-12T13:20:38.838Z,43.85
2016-09-12T13:21:38.840Z,43.55
2016-09-12T13:22:38.848Z,43.73
2016-09-12T13:23:38.853Z,44.79
2016-09-12T13:24:38.859Z,44.04
2016-09-12T13:25:38.861Z,44.02
2016-09-12T13:26:38.867Z,42.36
2016-09-12T13:27:38.870Z,40.06
2016-09-12T13:28:38.876Z,38.6
2016-09-12T13:29:38.883Z,38.4
2016-09-12T13:30:39.206Z,38.4
2016-09-12T13:31:38.894Z,39.47
2016-09-12T13:32:38.901Z,40.25
2016-09-12T13:33:38.902Z,39.37
2016-09-12T13:34:38.908Z,40.25
2016-09-12T13:35:38.913Z,41.2
2016-09-12T13:36:38.916Z,41.32
2016-09-12T13:37:38.943Z,41.71
2016-09-12T13:38:38.926Z,42.49
2016-09-12T13:39:38.932Z,42.49
2016-09-12T13:40:38.944Z,40.06
2016-09-12T13:41:38.948Z,39.28
2016-09-12T13:42:39.267Z,40.54
2016-09-12T13:43:38.973Z,39.47
2016-09-12T13:44:38.960Z,36.44
2016-09-12T13:45:38.965Z,35.76
2016-09-12T13:46:38.972Z,36.24
2016-09-12T13:47:38.976Z,36.75
2016-09-12T13:48:38.987Z,37.02
2016-09-12T13:49:38.983Z,37.51
2016-09-12T13:50:38.992Z,37.99
2016-09-12T13:51:38.993Z,36.54
2016-09-12T13:52:39.001Z,35.76
2016-09-12T13:53:39.006Z,37.02
2016-09-12T13:54:39.018Z,37.9
2016-09-12T13:55:39.022Z,38.57
2016-09-12T13:56:39.046Z,38.67
2016-09-12T13:57:39.032Z,39.55
2016-09-12T13:58:39.036Z,40.23
2016-09-12T13:59:39.050Z,40.23
2016-09-12T14:00:39.041Z,41.1
2016-09-12T14:01:39.053Z,41.98
2016-09-12T14:02:39.049Z,41.88
2016-09-12T14:03:39.062Z,41.78
2016-09-12T14:04:39.069Z,40.62
2016-09-12T14:05:39.064Z,40.62
2016-09-12T14:06:39.067Z,43.05
2016-09-12T14:07:39.081Z,42.95
2016-09-12T14:08:39.091Z,41.1
2016-09-12T14:09:39.087Z,39.84
2016-09-12T14:10:39.105Z,38.96
2016-09-12T14:11:39.099Z,38.87
2016-09-12T14:12:39.105Z,39.75
2016-09-12T14:13:39.112Z,40.03
2016-09-12T14:14:39.120Z,40.23
2016-09-12T14:15:39.119Z,39.94
2016-09-12T14:16:39.133Z,38.48
2016-09-12T14:17:39.141Z,38.67
2016-09-12T14:18:39.285Z,38.67
2016-09-12T14:19:39.145Z,40.52
2016-09-12T14:20:39.146Z,39.84
2016-09-12T14:21:39.150Z,38.77
2016-09-12T14:22:39.168Z,38.57
2016-09-12T14:23:39.161Z,38.09
2016-09-12T14:24:39.177Z,37.12
2016-09-12T14:25:39.168Z,37.14
2016-09-12T14:26:39.181Z,37.32
2016-09-12T14:27:39.186Z,37.51
2016-09-12T14:28:39.557Z,37.6
2016-09-12T14:29:39.191Z,37.72
2016-09-12T14:30:39.210Z,37.51
2016-09-12T14:31:39.202Z,37.99
2016-09-12T14:32:39.207Z,38.29
2016-09-12T14:33:39.216Z,39.16
2016-09-12T14:34:39.574Z,39.45
2016-09-12T14:35:39.223Z,39.36
2016-09-12T14:36:39.241Z,38.57
2016-09-12T14:37:39.229Z,39.16
2016-09-12T14:38:39.246Z,38.19
2016-09-12T14:39:39.240Z,38.67
2016-09-12T14:40:39.246Z,39.16
2016-09-12T14:41:39.254Z,39.45
2016-09-12T14:42:39.256Z,40.52
2016-09-12T14:43:39.265Z,40.03
2016-09-12T14:44:39.268Z,40.33
2016-09-12T14:45:39.273Z,40.42
2016-09-12T14:46:39.291Z,39.65
2016-09-12T14:47:39.305Z,38.37
2016-09-12T14:48:54.171Z,40.33
2016-09-12T14:49:39.299Z,41.67
2016-09-12T14:50:39.307Z,42.05
2016-09-12T14:51:39.300Z,41.57
2016-09-12T14:52:39.315Z,39.43
2016-09-12T14:53:39.314Z,39.53
2016-09-12T14:54:39.321Z,40.69
2016-09-12T14:55:39.321Z,41.86
2016-09-12T14:56:39.330Z,41.67
2016-09-12T14:57:39.329Z,42.05
2016-09-12T14:58:39.336Z,43.22
2016-09-12T14:59:39.341Z,44.68
2016-09-12T15:00:39.346Z,44.58
2016-09-12T15:01:39.352Z,44.58
2016-09-12T15:02:39.359Z,44.09
2016-09-12T15:03:39.368Z,46.14
2016-09-12T15:04:39.372Z,46.04
2016-09-12T15:05:39.375Z,45.17
2016-09-12T15:06:39.384Z,45.65
2016-09-12T15:07:39.389Z,45.17
2016-09-12T15:08:39.392Z,44.68
2016-09-12T15:09:39.396Z,44.38
2016-09-12T15:10:39.402Z,42.44
2016-09-12T15:11:39.397Z,42.05
2016-09-12T15:12:39.414Z,42.35
2016-09-12T15:13:39.407Z,41.67
2016-09-12T15:14:39.417Z,41.96
2016-09-12T15:15:39.419Z,41.86
2016-09-12T15:16:39.429Z,41.86
2016-09-12T15:17:39.434Z,42.05
2016-09-12T15:18:39.482Z,42.64
2016-09-12T15:19:39.438Z,43.8
2016-09-12T15:20:39.456Z,44.58
2016-09-12T15:21:39.449Z,45.65
2016-09-12T15:22:39.451Z,42.64
2016-09-12T15:23:39.459Z,42.54
2016-09-12T15:24:39.466Z,42.44
2016-09-12T15:25:39.465Z,42.83
2016-09-12T15:26:39.479Z,42.35
2016-09-12T15:27:39.485Z,41.86
2016-09-12T15:28:39.490Z,42.64
2016-09-12T15:29:39.491Z,43.02
2016-09-12T15:30:39.495Z,43.32
2016-09-12T15:31:39.503Z,43.9
2016-09-12T15:32:39.512Z,42.15
2016-09-12T15:33:39.511Z,42.93
2016-09-12T15:34:39.510Z,43.32
2016-09-12T15:35:39.528Z,43.51
2016-09-12T15:36:39.525Z,43.61
2016-09-12T15:37:39.525Z,43.4
2016-09-12T15:38:39.530Z,43.8
2016-09-12T15:39:39.541Z,43.51
2016-09-12T15:40:39.551Z,43.12
2016-09-12T15:41:39.548Z,43.98
2016-09-12T15:42:39.557Z,43.78
2016-09-12T15:43:39.564Z,44.27
2016-09-12T15:44:39.558Z,45.24
2016-09-12T15:45:39.564Z,44.56
2016-09-12T15:46:39.571Z,45.34
2016-09-12T15:47:39.572Z,45.34
2016-09-12T15:48:39.579Z,46.79
2016-09-12T15:49:39.588Z,46.38
2016-09-12T15:50:39.591Z,45.99
2016-09-12T15:51:39.588Z,44.64
2016-09-12T15:52:39.603Z,44.54
2016-09-12T15:53:39.615Z,44.24
2016-09-12T15:54:39.607Z,44.15
2016-09-12T15:55:39.608Z,44.51
2016-09-12T15:56:39.627Z,47.06
2016-09-12T15:57:39.615Z,49.29
2016-09-12T15:58:39.623Z,52.56
2016-09-12T15:59:39.642Z,53.15
2016-09-12T16:00:39.648Z,55.08
2016-09-12T16:01:39.636Z,58.97
2016-09-12T16:02:39.643Z,56.05
2016-09-12T16:03:39.641Z,55.96
2016-09-12T16:04:39.651Z,56.71
2016-09-12T16:05:39.657Z,58.16
2016-09-12T16:06:39.662Z,60.78
2016-09-12T16:07:39.660Z,62.13
2016-09-12T16:08:39.665Z,66.3
2016-09-12T16:09:39.675Z,65.43
2016-09-12T16:10:39.682Z,72.89
2016-09-12T16:11:39.683Z,77.61
2016-09-12T16:12:39.683Z,82.26
2016-09-12T16:13:39.686Z,84.39
2016-09-12T16:14:39.690Z,85.17
2016-09-12T16:15:39.693Z,85.85
2016-09-12T16:16:39.699Z,93.26
2016-09-12T16:17:39.706Z,92.19
2016-09-12T16:18:39.706Z,93.07
2016-09-12T16:19:39.714Z,98.58
2016-09-12T16:20:39.719Z,98.88
2016-09-12T16:21:39.712Z,99.26
2016-09-12T16:22:39.724Z,99.94
2016-09-12T16:23:39.721Z,97.33
2016-09-12T16:24:39.733Z,98
2016-09-12T16:25:39.737Z,99.99
2016-09-12T16:26:39.737Z,99.99
2016-09-12T16:27:39.745Z,99.99
2016-09-12T16:28:39.768Z,99.99
2016-09-12T16:29:39.745Z,99.99
2016-09-12T16:30:39.746Z,99.99
2016-09-12T16:31:39.868Z,99.99
2016-09-12T16:32:39.868Z,99.99
2016-09-12T16:33:39.877Z,99.99
2016-09-12T16:34:39.868Z,99.99
2016-09-12T16:35:39.869Z,99.99
2016-09-12T16:36:39.875Z,99.99
2016-09-12T16:37:39.883Z,99.99
2016-09-12T16:38:39.875Z,99.99
2016-09-12T16:39:39.886Z,99.99
2016-09-12T16:40:39.881Z,99.99
2016-09-12T16:41:39.894Z,99.99
2016-09-12T16:42:39.890Z,99.99
2016-09-12T16:43:39.898Z,99.99
2016-09-12T16:44:40.048Z,99.99
2016-09-12T16:45:39.897Z,99.99
2016-09-12T16:46:39.904Z,99.99
2016-09-12T16:47:39.904Z,99.99
2016-09-12T16:48:39.912Z,99.99
2016-09-12T16:49:39.882Z,99.99
2016-09-12T16:50:39.881Z,99.99
2016-09-12T16:51:39.881Z,99.99
2016-09-12T16:52:39.887Z,99.99
2016-09-12T16:53:39.888Z,99.99
2016-09-12T16:54:39.899Z,99.99
2016-09-12T16:55:39.887Z,99.99
2016-09-12T16:56:40.052Z,99.99
2016-09-12T16:57:40.040Z,99.99
2016-09-12T16:58:40.050Z,99.99
2016-09-12T16:59:40.059Z,99.99
2016-09-12T17:00:39.902Z,99.99
2016-09-12T17:01:40.066Z,99.99
2016-09-12T17:02:40.070Z,99.99
2016-09-12T17:03:39.910Z,99.99
2016-09-12T17:04:40.042Z,99.99
2016-09-12T17:05:40.044Z,99.99
2016-09-12T17:06:39.917Z,99.99
2016-09-12T17:07:39.939Z,99.99
2016-09-12T17:08:39.916Z,99.99
2016-09-12T17:09:40.025Z,99.99
2016-09-12T17:10:40.033Z,99.99
2016-09-12T17:11:40.033Z,99.99
2016-09-12T17:12:40.042Z,99.99
2016-09-12T17:13:40.052Z,99.99
2016-09-12T17:14:40.065Z,99.74
2016-09-12T17:15:40.075Z,99.65
2016-09-12T17:16:40.075Z,99.79
2016-09-12T17:17:40.192Z,99.99
2016-09-12T17:18:40.087Z,99.99
2016-09-12T17:19:40.100Z,98.92
2016-09-12T17:20:39.936Z,99.02
2016-09-12T17:21:39.947Z,98.82
2016-09-12T17:22:40.016Z,96.12
2016-09-12T17:23:40.021Z,96.08
2016-09-12T17:24:40.021Z,95.21
2016-09-12T17:25:40.040Z,93.57
2016-09-12T17:26:40.040Z,92.22
2016-09-12T17:27:40.053Z,91.36
2016-09-12T17:28:40.058Z,89.33
2016-09-12T17:29:40.068Z,88.32
2016-09-12T17:30:40.077Z,88.71
2016-09-12T17:31:40.082Z,88.32
2016-09-12T17:32:40.084Z,88.71
2016-09-12T17:33:40.095Z,86.3
2016-09-12T17:34:40.002Z,84.66
2016-09-12T17:35:40.002Z,84.66
2016-09-12T17:36:40.015Z,83.18
2016-09-12T17:37:40.021Z,83.7
2016-09-12T17:38:40.132Z,83.18
2016-09-12T17:39:40.039Z,82.7
2016-09-12T17:40:40.048Z,81.73
2016-09-12T17:41:40.342Z,81.35
2016-09-12T17:42:40.056Z,80.38
2016-09-12T17:43:40.072Z,80.68
2016-09-12T17:44:40.080Z,80.68
2016-09-12T17:45:40.088Z,79.77
2016-09-12T17:46:40.083Z,78.61
2016-09-12T17:47:39.995Z,78.03
2016-09-12T17:48:40.004Z,77.56
2016-09-12T17:49:40.010Z,76.4
2016-09-12T17:50:40.219Z,76.31
2016-09-12T17:51:40.021Z,77.08
2016-09-12T17:52:40.032Z,77.65
2016-09-12T17:53:40.041Z,77.36
2016-09-12T17:54:40.049Z,79.44
2016-09-12T17:55:40.058Z,81.6
2016-09-12T17:56:40.055Z,83
2016-09-12T17:57:40.074Z,81.84
2016-09-12T17:58:40.077Z,80.21
2016-09-12T17:59:39.989Z,80.69
2016-09-12T18:00:39.984Z,81.75
2016-09-12T18:01:40.094Z,82.61
2016-09-12T18:02:40.004Z,81.27
2016-09-12T18:03:40.119Z,80.3
2016-09-12T18:04:40.023Z,77.71
2016-09-12T18:05:40.020Z,76.36
2016-09-12T18:06:40.029Z,75.75
2016-09-12T18:07:40.040Z,74.98
2016-09-12T18:08:40.047Z,75.75
2016-09-12T18:09:40.059Z,75.37
2016-09-12T18:10:40.063Z,74.6
2016-09-12T18:11:40.048Z,72.77
2016-09-12T18:12:39.973Z,72.19
2016-09-12T18:13:39.981Z,71.42
2016-09-12T18:14:40.095Z,70.84
2016-09-12T18:15:39.989Z,70.75
2016-09-12T18:16:39.998Z,69.98
2016-09-12T18:17:40.008Z,69.89
2016-09-12T18:18:40.021Z,68.02
2016-09-12T18:19:40.028Z,66.49
2016-09-12T18:20:40.029Z,65.23
2016-09-12T18:21:40.036Z,64.95
2016-09-12T18:22:40.049Z,64.18
2016-09-12T18:23:40.056Z,62.45
2016-09-12T18:24:40.062Z,62.07
2016-09-12T18:25:40.102Z,61.87
2016-09-12T18:26:39.969Z,60.53
2016-09-12T18:27:39.980Z,61.01
2016-09-12T18:28:39.986Z,61.3
2016-09-12T18:29:39.998Z,61.49
2016-09-12T18:30:40.112Z,61.78
2016-09-12T18:31:40.153Z,62.55
2016-09-12T18:32:40.127Z,61.97
2016-09-12T18:33:40.135Z,61.01
2016-09-12T18:34:40.032Z,60.43
2016-09-12T18:35:40.033Z,60.34
2016-09-12T18:36:40.043Z,59.95
2016-09-12T18:37:40.088Z,59.95
2016-09-12T18:38:39.962Z,59.83
2016-09-12T18:39:39.960Z,59.09
2016-09-12T18:40:40.103Z,58.87
2016-09-12T18:41:39.989Z,59.34
2016-09-12T18:42:39.985Z,58.58
2016-09-12T18:43:39.995Z,58.87
2016-09-12T18:44:40.007Z,58.48
2016-09-12T18:45:40.003Z,58.39
2016-09-12T18:46:40.115Z,58.67
2016-09-12T18:47:40.025Z,58.87
2016-09-12T18:48:40.030Z,58.29
2016-09-12T18:49:40.040Z,57.33
2016-09-12T18:50:39.953Z,57.04
2016-09-12T18:51:39.951Z,56.66
2016-09-12T18:52:39.958Z,55.41
2016-09-12T18:53:39.964Z,55.41
2016-09-12T18:54:39.968Z,55.12
2016-09-12T18:55:39.984Z,55.32
2016-09-12T18:56:39.985Z,55.32
2016-09-12T18:57:39.993Z,54.64
2016-09-12T18:58:40.008Z,54.74
2016-09-12T18:59:39.960Z,55
2016-09-12T19:00:40.010Z,55
2016-09-12T19:01:40.021Z,55.22
2016-09-12T19:02:39.930Z,54.33
2016-09-12T19:03:40.051Z,55.22
2016-09-12T19:04:39.936Z,55.47
2016-09-12T19:05:39.953Z,55.86
2016-09-12T19:06:39.956Z,55.86
2016-09-12T19:07:39.966Z,55.38
2016-09-12T19:08:39.972Z,54.8
2016-09-12T19:09:39.982Z,55.1
2016-09-12T19:10:39.999Z,55.1
2016-09-12T19:11:39.999Z,54.52
2016-09-12T19:12:39.999Z,54.04
2016-09-12T19:13:40.010Z,54.33
2016-09-12T19:14:40.057Z,53.46
2016-09-12T19:15:39.924Z,53.08
2016-09-12T19:16:39.927Z,52.98
2016-09-12T19:17:39.935Z,53.08
2016-09-12T19:18:40.086Z,53.17
2016-09-12T19:19:39.943Z,53.08
2016-09-12T19:20:39.957Z,52.98
2016-09-12T19:21:40.164Z,53.08
2016-09-12T19:22:39.973Z,52.98
2016-09-12T19:23:39.986Z,52.86
2016-09-12T19:24:39.978Z,52.69
2016-09-12T19:25:39.991Z,52
2016-09-12T19:26:39.998Z,52.95
2016-09-12T19:27:40.052Z,52.57
2016-09-12T19:28:39.925Z,52.95
2016-09-12T19:29:39.916Z,52
2016-09-12T19:30:40.058Z,52.19
2016-09-12T19:31:39.937Z,51.81
2016-09-12T19:33:39.941Z,50.75
2016-09-12T19:34:39.950Z,50.46
2016-09-12T19:35:40.246Z,49.6
2016-09-12T19:36:39.973Z,49.31
2016-09-12T19:37:40.419Z,49.6